sensor_id;sensor_type;location;lat;lon;timestamp;P1;durP1;ratioP1;P2;durP2;ratioP2
86241;SDS011;76911;51.784;4.658;2024-03-17T00:02:20;8.53;;;8.53;;
86241;SDS011;76911;51.784;4.658;2024-03-17T00:04:45;8.80;;;8.80;;
86241;SDS011;76911;51.784;4.658;2024-03-17T00:07:11;9.26;;;9.26;;
86241;SDS011;76911;51.784;4.658;2024-03-17T00:09:38;9.22;;;9.17;;
86241;SDS011;76911;51.784;4.658;2024-03-17T00:12:04;9.81;;;9.78;;
86241;SDS011;76911;51.784;4.658;2024-03-17T00:14:30;9.86;;;9.86;;
86241;SDS011;76911;51.784;4.658;2024-03-17T00:16:56;9.64;;;9.62;;
86241;SDS011;76911;51.784;4.658;2024-03-17T00:19:25;9.35;;;9.25;;
86241;SDS011;76911;51.784;4.658;2024-03-17T00:21:51;9.77;;;9.72;;
86241;SDS011;76911;51.784;4.658;2024-03-17T00:24:17;10.58;;;10.46;;
86241;SDS011;76911;51.784;4.658;2024-03-17T00:26:42;10.30;;;10.23;;
86241;SDS011;76911;51.784;4.658;2024-03-17T00:29:08;10.16;;;10.09;;
86241;SDS011;76911;51.784;4.658;2024-03-17T00:31:33;10.40;;;10.36;;
86241;SDS011;76911;51.784;4.658;2024-03-17T00:33:59;10.29;;;10.27;;
86241;SDS011;76911;51.784;4.658;2024-03-17T00:36:24;10.31;;;10.31;;
86241;SDS011;76911;51.784;4.658;2024-03-17T00:38:50;10.65;;;10.63;;
86241;SDS011;76911;51.784;4.658;2024-03-17T00:41:17;11.04;;;11.03;;
86241;SDS011;76911;51.784;4.658;2024-03-17T00:43:42;11.20;;;11.11;;
86241;SDS011;76911;51.784;4.658;2024-03-17T00:46:08;11.26;;;11.16;;
86241;SDS011;76911;51.784;4.658;2024-03-17T00:48:33;10.95;;;10.93;;
86241;SDS011;76911;51.784;4.658;2024-03-17T00:50:59;11.68;;;11.66;;
86241;SDS011;76911;51.784;4.658;2024-03-17T00:53:25;11.77;;;11.76;;
86241;SDS011;76911;51.784;4.658;2024-03-17T00:55:56;12.07;;;11.99;;
86241;SDS011;76911;51.784;4.658;2024-03-17T00:58:28;11.94;;;11.91;;
86241;SDS011;76911;51.784;4.658;2024-03-17T01:00:53;12.25;;;12.22;;
86241;SDS011;76911;51.784;4.658;2024-03-17T01:03:19;12.28;;;12.12;;
86241;SDS011;76911;51.784;4.658;2024-03-17T01:05:45;12.40;;;12.20;;
86241;SDS011;76911;51.784;4.658;2024-03-17T01:08:15;12.63;;;12.56;;
86241;SDS011;76911;51.784;4.658;2024-03-17T01:10:41;11.74;;;11.64;;
86241;SDS011;76911;51.784;4.658;2024-03-17T01:13:07;12.33;;;12.26;;
86241;SDS011;76911;51.784;4.658;2024-03-17T01:15:34;12.31;;;12.26;;
86241;SDS011;76911;51.784;4.658;2024-03-17T01:18:02;12.58;;;12.54;;
86241;SDS011;76911;51.784;4.658;2024-03-17T01:20:29;12.51;;;12.44;;
86241;SDS011;76911;51.784;4.658;2024-03-17T01:22:55;12.97;;;12.91;;
86241;SDS011;76911;51.784;4.658;2024-03-17T01:25:21;12.98;;;12.95;;
86241;SDS011;76911;51.784;4.658;2024-03-17T01:27:46;13.72;;;13.60;;
86241;SDS011;76911;51.784;4.658;2024-03-17T01:30:12;14.01;;;13.96;;
86241;SDS011;76911;51.784;4.658;2024-03-17T01:32:37;13.24;;;13.14;;
86241;SDS011;76911;51.784;4.658;2024-03-17T01:35:03;13.64;;;13.57;;
86241;SDS011;76911;51.784;4.658;2024-03-17T01:37:31;13.56;;;13.53;;
86241;SDS011;76911;51.784;4.658;2024-03-17T01:39:59;13.71;;;13.59;;
86241;SDS011;76911;51.784;4.658;2024-03-17T01:42:25;13.59;;;13.52;;
86241;SDS011;76911;51.784;4.658;2024-03-17T01:44:51;14.00;;;13.97;;
86241;SDS011;76911;51.784;4.658;2024-03-17T01:47:17;13.52;;;13.49;;
86241;SDS011;76911;51.784;4.658;2024-03-17T01:49:44;13.76;;;13.73;;
86241;SDS011;76911;51.784;4.658;2024-03-17T01:52:13;13.88;;;13.85;;
86241;SDS011;76911;51.784;4.658;2024-03-17T01:54:40;13.97;;;13.81;;
86241;SDS011;76911;51.784;4.658;2024-03-17T01:57:07;13.58;;;13.56;;
86241;SDS011;76911;51.784;4.658;2024-03-17T01:59:32;14.28;;;14.27;;
86241;SDS011;76911;51.784;4.658;2024-03-17T02:01:58;14.24;;;14.17;;
86241;SDS011;76911;51.784;4.658;2024-03-17T02:04:25;14.06;;;13.99;;
86241;SDS011;76911;51.784;4.658;2024-03-17T02:06:50;15.05;;;14.85;;
86241;SDS011;76911;51.784;4.658;2024-03-17T02:09:15;14.31;;;14.30;;
86241;SDS011;76911;51.784;4.658;2024-03-17T02:11:41;14.36;;;14.25;;
86241;SDS011;76911;51.784;4.658;2024-03-17T02:14:07;15.07;;;14.82;;
86241;SDS011;76911;51.784;4.658;2024-03-17T02:16:33;15.44;;;15.13;;
86241;SDS011;76911;51.784;4.658;2024-03-17T02:18:58;14.31;;;14.22;;
86241;SDS011;76911;51.784;4.658;2024-03-17T02:21:25;14.50;;;14.38;;
86241;SDS011;76911;51.784;4.658;2024-03-17T02:23:55;14.87;;;14.60;;
86241;SDS011;76911;51.784;4.658;2024-03-17T02:26:21;14.34;;;14.20;;
86241;SDS011;76911;51.784;4.658;2024-03-17T02:28:49;14.54;;;14.51;;
86241;SDS011;76911;51.784;4.658;2024-03-17T02:31:15;14.23;;;14.17;;
86241;SDS011;76911;51.784;4.658;2024-03-17T02:33:42;14.37;;;14.22;;
86241;SDS011;76911;51.784;4.658;2024-03-17T02:36:09;15.05;;;14.84;;
86241;SDS011;76911;51.784;4.658;2024-03-17T02:38:37;14.51;;;14.47;;
86241;SDS011;76911;51.784;4.658;2024-03-17T02:41:22;15.08;;;14.82;;
86241;SDS011;76911;51.784;4.658;2024-03-17T02:43:48;14.75;;;14.61;;
86241;SDS011;76911;51.784;4.658;2024-03-17T02:46:14;14.26;;;14.08;;
86241;SDS011;76911;51.784;4.658;2024-03-17T02:48:42;14.69;;;14.42;;
86241;SDS011;76911;51.784;4.658;2024-03-17T02:51:14;13.96;;;13.91;;
86241;SDS011;76911;51.784;4.658;2024-03-17T02:53:42;14.52;;;14.37;;
86241;SDS011;76911;51.784;4.658;2024-03-17T02:56:08;14.76;;;14.53;;
86241;SDS011;76911;51.784;4.658;2024-03-17T02:58:35;14.71;;;14.44;;
86241;SDS011;76911;51.784;4.658;2024-03-17T03:01:01;14.52;;;14.28;;
86241;SDS011;76911;51.784;4.658;2024-03-17T03:03:27;14.65;;;14.52;;
86241;SDS011;76911;51.784;4.658;2024-03-17T03:05:53;14.07;;;13.92;;
86241;SDS011;76911;51.784;4.658;2024-03-17T03:08:18;14.41;;;14.09;;
86241;SDS011;76911;51.784;4.658;2024-03-17T03:10:44;14.14;;;14.05;;
86241;SDS011;76911;51.784;4.658;2024-03-17T03:13:10;13.59;;;13.57;;
86241;SDS011;76911;51.784;4.658;2024-03-17T03:15:36;13.72;;;13.70;;
86241;SDS011;76911;51.784;4.658;2024-03-17T03:18:01;14.52;;;14.33;;
86241;SDS011;76911;51.784;4.658;2024-03-17T03:20:27;14.72;;;14.45;;
86241;SDS011;76911;51.784;4.658;2024-03-17T03:22:53;14.96;;;14.81;;
86241;SDS011;76911;51.784;4.658;2024-03-17T03:25:19;16.35;;;16.19;;
86241;SDS011;76911;51.784;4.658;2024-03-17T03:27:44;17.04;;;16.75;;
86241;SDS011;76911;51.784;4.658;2024-03-17T03:30:10;16.48;;;16.25;;
86241;SDS011;76911;51.784;4.658;2024-03-17T03:32:36;16.74;;;16.49;;
86241;SDS011;76911;51.784;4.658;2024-03-17T03:35:04;16.41;;;16.32;;
86241;SDS011;76911;51.784;4.658;2024-03-17T03:37:30;16.74;;;16.60;;
86241;SDS011;76911;51.784;4.658;2024-03-17T03:39:57;16.71;;;16.41;;
86241;SDS011;76911;51.784;4.658;2024-03-17T03:42:23;16.36;;;16.18;;
86241;SDS011;76911;51.784;4.658;2024-03-17T03:44:49;16.66;;;16.65;;
86241;SDS011;76911;51.784;4.658;2024-03-17T03:47:14;16.23;;;16.09;;
86241;SDS011;76911;51.784;4.658;2024-03-17T03:49:40;15.95;;;15.88;;
86241;SDS011;76911;51.784;4.658;2024-03-17T03:52:05;15.72;;;15.52;;
86241;SDS011;76911;51.784;4.658;2024-03-17T03:54:31;15.68;;;15.39;;
86241;SDS011;76911;51.784;4.658;2024-03-17T03:56:56;15.91;;;15.64;;
86241;SDS011;76911;51.784;4.658;2024-03-17T03:59:22;15.50;;;15.23;;
86241;SDS011;76911;51.784;4.658;2024-03-17T04:01:48;15.39;;;15.19;;
86241;SDS011;76911;51.784;4.658;2024-03-17T04:04:14;15.53;;;15.35;;
86241;SDS011;76911;51.784;4.658;2024-03-17T04:06:40;15.08;;;14.89;;
86241;SDS011;76911;51.784;4.658;2024-03-17T04:09:05;15.01;;;14.83;;
86241;SDS011;76911;51.784;4.658;2024-03-17T04:11:34;14.50;;;14.38;;
86241;SDS011;76911;51.784;4.658;2024-03-17T04:14:01;15.22;;;15.04;;
86241;SDS011;76911;51.784;4.658;2024-03-17T04:16:27;15.06;;;15.01;;
86241;SDS011;76911;51.784;4.658;2024-03-17T04:18:53;15.27;;;15.08;;
86241;SDS011;76911;51.784;4.658;2024-03-17T04:21:18;14.25;;;14.24;;
86241;SDS011;76911;51.784;4.658;2024-03-17T04:23:46;15.89;;;15.67;;
86241;SDS011;76911;51.784;4.658;2024-03-17T04:26:11;14.89;;;14.79;;
86241;SDS011;76911;51.784;4.658;2024-03-17T04:28:38;15.27;;;14.97;;
86241;SDS011;76911;51.784;4.658;2024-03-17T04:31:04;15.16;;;15.10;;
86241;SDS011;76911;51.784;4.658;2024-03-17T04:33:33;14.81;;;14.75;;
86241;SDS011;76911;51.784;4.658;2024-03-17T04:36:00;15.42;;;15.10;;
86241;SDS011;76911;51.784;4.658;2024-03-17T04:38:27;15.29;;;15.07;;
86241;SDS011;76911;51.784;4.658;2024-03-17T04:40:53;14.95;;;14.86;;
86241;SDS011;76911;51.784;4.658;2024-03-17T04:43:29;14.64;;;14.50;;
86241;SDS011;76911;51.784;4.658;2024-03-17T04:46:03;15.02;;;14.94;;
86241;SDS011;76911;51.784;4.658;2024-03-17T04:48:31;14.83;;;14.63;;
86241;SDS011;76911;51.784;4.658;2024-03-17T04:50:57;15.06;;;14.86;;
86241;SDS011;76911;51.784;4.658;2024-03-17T04:53:24;15.52;;;15.29;;
86241;SDS011;76911;51.784;4.658;2024-03-17T04:55:58;15.43;;;15.05;;
86241;SDS011;76911;51.784;4.658;2024-03-17T04:58:27;16.05;;;15.91;;
86241;SDS011;76911;51.784;4.658;2024-03-17T05:00:53;15.52;;;15.32;;
86241;SDS011;76911;51.784;4.658;2024-03-17T05:03:18;15.50;;;15.33;;
86241;SDS011;76911;51.784;4.658;2024-03-17T05:05:44;15.81;;;15.68;;
86241;SDS011;76911;51.784;4.658;2024-03-17T05:08:09;15.63;;;15.55;;
86241;SDS011;76911;51.784;4.658;2024-03-17T05:10:35;16.19;;;15.92;;
86241;SDS011;76911;51.784;4.658;2024-03-17T05:13:00;15.70;;;15.45;;
86241;SDS011;76911;51.784;4.658;2024-03-17T05:15:25;16.32;;;15.98;;
86241;SDS011;76911;51.784;4.658;2024-03-17T05:17:51;15.33;;;15.29;;
86241;SDS011;76911;51.784;4.658;2024-03-17T05:20:17;15.80;;;15.53;;
86241;SDS011;76911;51.784;4.658;2024-03-17T05:22:43;15.54;;;15.37;;
86241;SDS011;76911;51.784;4.658;2024-03-17T05:25:11;15.45;;;15.27;;
86241;SDS011;76911;51.784;4.658;2024-03-17T05:27:38;16.00;;;15.69;;
86241;SDS011;76911;51.784;4.658;2024-03-17T05:30:03;16.53;;;16.25;;
86241;SDS011;76911;51.784;4.658;2024-03-17T05:32:29;16.10;;;15.78;;
86241;SDS011;76911;51.784;4.658;2024-03-17T05:34:55;16.08;;;15.77;;
86241;SDS011;76911;51.784;4.658;2024-03-17T05:37:21;15.97;;;15.67;;
86241;SDS011;76911;51.784;4.658;2024-03-17T05:39:46;15.71;;;15.46;;
86241;SDS011;76911;51.784;4.658;2024-03-17T05:42:12;15.21;;;15.19;;
86241;SDS011;76911;51.784;4.658;2024-03-17T05:44:37;15.42;;;15.22;;
86241;SDS011;76911;51.784;4.658;2024-03-17T05:47:18;15.53;;;15.21;;
86241;SDS011;76911;51.784;4.658;2024-03-17T05:49:44;15.58;;;15.30;;
86241;SDS011;76911;51.784;4.658;2024-03-17T05:52:10;15.40;;;15.13;;
86241;SDS011;76911;51.784;4.658;2024-03-17T05:54:36;15.35;;;15.20;;
86241;SDS011;76911;51.784;4.658;2024-03-17T05:57:02;15.75;;;15.56;;
86241;SDS011;76911;51.784;4.658;2024-03-17T05:59:29;15.64;;;15.29;;
86241;SDS011;76911;51.784;4.658;2024-03-17T06:01:56;15.88;;;15.58;;
86241;SDS011;76911;51.784;4.658;2024-03-17T06:04:22;15.82;;;15.65;;
86241;SDS011;76911;51.784;4.658;2024-03-17T06:06:47;16.18;;;15.73;;
86241;SDS011;76911;51.784;4.658;2024-03-17T06:09:13;15.98;;;15.74;;
86241;SDS011;76911;51.784;4.658;2024-03-17T06:11:43;15.55;;;15.32;;
86241;SDS011;76911;51.784;4.658;2024-03-17T06:14:08;15.51;;;15.40;;
86241;SDS011;76911;51.784;4.658;2024-03-17T06:16:37;15.65;;;15.41;;
86241;SDS011;76911;51.784;4.658;2024-03-17T06:19:02;15.33;;;15.20;;
86241;SDS011;76911;51.784;4.658;2024-03-17T06:21:28;15.61;;;15.28;;
86241;SDS011;76911;51.784;4.658;2024-03-17T06:23:54;15.33;;;15.02;;
86241;SDS011;76911;51.784;4.658;2024-03-17T06:26:19;15.50;;;15.30;;
86241;SDS011;76911;51.784;4.658;2024-03-17T06:28:46;15.17;;;14.94;;
86241;SDS011;76911;51.784;4.658;2024-03-17T06:31:11;15.62;;;15.30;;
86241;SDS011;76911;51.784;4.658;2024-03-17T06:33:37;15.70;;;15.38;;
86241;SDS011;76911;51.784;4.658;2024-03-17T06:36:03;15.41;;;15.04;;
86241;SDS011;76911;51.784;4.658;2024-03-17T06:38:29;15.56;;;15.33;;
86241;SDS011;76911;51.784;4.658;2024-03-17T06:40:55;15.23;;;15.16;;
86241;SDS011;76911;51.784;4.658;2024-03-17T06:43:21;14.97;;;14.75;;
86241;SDS011;76911;51.784;4.658;2024-03-17T06:45:53;14.85;;;14.60;;
86241;SDS011;76911;51.784;4.658;2024-03-17T06:48:20;15.29;;;14.96;;
86241;SDS011;76911;51.784;4.658;2024-03-17T06:50:46;15.04;;;14.85;;
86241;SDS011;76911;51.784;4.658;2024-03-17T06:53:11;15.41;;;15.12;;
86241;SDS011;76911;51.784;4.658;2024-03-17T06:55:37;15.07;;;14.92;;
86241;SDS011;76911;51.784;4.658;2024-03-17T06:58:02;15.30;;;15.01;;
86241;SDS011;76911;51.784;4.658;2024-03-17T07:00:28;15.16;;;14.84;;
86241;SDS011;76911;51.784;4.658;2024-03-17T07:02:53;15.23;;;15.05;;
86241;SDS011;76911;51.784;4.658;2024-03-17T07:05:19;14.97;;;14.79;;
86241;SDS011;76911;51.784;4.658;2024-03-17T07:07:44;14.83;;;14.63;;
86241;SDS011;76911;51.784;4.658;2024-03-17T07:10:10;14.64;;;14.48;;
86241;SDS011;76911;51.784;4.658;2024-03-17T07:12:37;15.22;;;15.09;;
86241;SDS011;76911;51.784;4.658;2024-03-17T07:15:06;15.19;;;15.04;;
86241;SDS011;76911;51.784;4.658;2024-03-17T07:17:33;14.78;;;14.57;;
86241;SDS011;76911;51.784;4.658;2024-03-17T07:19:59;14.78;;;14.67;;
86241;SDS011;76911;51.784;4.658;2024-03-17T07:22:25;15.27;;;15.09;;
86241;SDS011;76911;51.784;4.658;2024-03-17T07:24:52;15.03;;;14.80;;
86241;SDS011;76911;51.784;4.658;2024-03-17T07:27:22;15.02;;;14.68;;
86241;SDS011;76911;51.784;4.658;2024-03-17T07:29:47;14.93;;;14.68;;
86241;SDS011;76911;51.784;4.658;2024-03-17T07:32:12;15.10;;;14.87;;
86241;SDS011;76911;51.784;4.658;2024-03-17T07:34:38;15.42;;;15.12;;
86241;SDS011;76911;51.784;4.658;2024-03-17T07:37:03;14.82;;;14.73;;
86241;SDS011;76911;51.784;4.658;2024-03-17T07:39:29;14.48;;;14.35;;
86241;SDS011;76911;51.784;4.658;2024-03-17T07:42:01;15.08;;;14.99;;
86241;SDS011;76911;51.784;4.658;2024-03-17T07:44:28;15.34;;;15.15;;
86241;SDS011;76911;51.784;4.658;2024-03-17T07:46:58;15.07;;;14.85;;
86241;SDS011;76911;51.784;4.658;2024-03-17T07:49:24;15.18;;;15.10;;
86241;SDS011;76911;51.784;4.658;2024-03-17T07:51:49;15.27;;;15.08;;
86241;SDS011;76911;51.784;4.658;2024-03-17T07:54:14;15.42;;;15.17;;
86241;SDS011;76911;51.784;4.658;2024-03-17T07:56:40;16.03;;;15.65;;
86241;SDS011;76911;51.784;4.658;2024-03-17T07:59:05;15.94;;;15.54;;
86241;SDS011;76911;51.784;4.658;2024-03-17T08:01:37;15.15;;;14.94;;
86241;SDS011;76911;51.784;4.658;2024-03-17T08:04:03;15.52;;;15.30;;
86241;SDS011;76911;51.784;4.658;2024-03-17T08:06:29;15.56;;;15.26;;
86241;SDS011;76911;51.784;4.658;2024-03-17T08:08:54;15.39;;;15.06;;
86241;SDS011;76911;51.784;4.658;2024-03-17T08:11:20;15.09;;;14.88;;
86241;SDS011;76911;51.784;4.658;2024-03-17T08:13:45;15.11;;;14.88;;
86241;SDS011;76911;51.784;4.658;2024-03-17T08:16:11;15.28;;;14.90;;
86241;SDS011;76911;51.784;4.658;2024-03-17T08:18:36;15.67;;;15.24;;
86241;SDS011;76911;51.784;4.658;2024-03-17T08:21:03;15.47;;;15.15;;
86241;SDS011;76911;51.784;4.658;2024-03-17T08:23:32;15.14;;;14.80;;
86241;SDS011;76911;51.784;4.658;2024-03-17T08:25:59;14.89;;;14.56;;
86241;SDS011;76911;51.784;4.658;2024-03-17T08:28:26;15.21;;;15.07;;
86241;SDS011;76911;51.784;4.658;2024-03-17T08:30:57;14.59;;;14.33;;
86241;SDS011;76911;51.784;4.658;2024-03-17T08:33:25;15.33;;;14.99;;
86241;SDS011;76911;51.784;4.658;2024-03-17T08:38:24;14.76;;;14.49;;
86241;SDS011;76911;51.784;4.658;2024-03-17T08:40:51;14.99;;;14.70;;
86241;SDS011;76911;51.784;4.658;2024-03-17T08:43:18;14.38;;;14.27;;
86241;SDS011;76911;51.784;4.658;2024-03-17T08:45:44;14.47;;;14.25;;
86241;SDS011;76911;51.784;4.658;2024-03-17T08:48:19;14.33;;;14.16;;
86241;SDS011;76911;51.784;4.658;2024-03-17T08:50:49;14.28;;;14.10;;
86241;SDS011;76911;51.784;4.658;2024-03-17T08:53:18;14.39;;;14.19;;
86241;SDS011;76911;51.784;4.658;2024-03-17T08:55:44;14.51;;;14.16;;
86241;SDS011;76911;51.784;4.658;2024-03-17T08:58:10;14.50;;;14.22;;
86241;SDS011;76911;51.784;4.658;2024-03-17T09:00:35;14.21;;;13.98;;
86241;SDS011;76911;51.784;4.658;2024-03-17T09:03:02;14.10;;;13.88;;
86241;SDS011;76911;51.784;4.658;2024-03-17T09:05:28;14.38;;;14.06;;
86241;SDS011;76911;51.784;4.658;2024-03-17T09:07:53;13.98;;;13.70;;
86241;SDS011;76911;51.784;4.658;2024-03-17T09:10:20;13.74;;;13.56;;
86241;SDS011;76911;51.784;4.658;2024-03-17T09:12:46;13.34;;;13.16;;
86241;SDS011;76911;51.784;4.658;2024-03-17T09:15:12;13.60;;;13.44;;
86241;SDS011;76911;51.784;4.658;2024-03-17T09:17:38;13.27;;;13.06;;
86241;SDS011;76911;51.784;4.658;2024-03-17T09:20:05;12.72;;;12.51;;
86241;SDS011;76911;51.784;4.658;2024-03-17T09:22:36;13.18;;;12.93;;
86241;SDS011;76911;51.784;4.658;2024-03-17T09:25:05;13.01;;;12.86;;
86241;SDS011;76911;51.784;4.658;2024-03-17T09:27:32;12.77;;;12.50;;
86241;SDS011;76911;51.784;4.658;2024-03-17T09:29:59;12.71;;;12.54;;
86241;SDS011;76911;51.784;4.658;2024-03-17T09:32:25;12.51;;;12.45;;
86241;SDS011;76911;51.784;4.658;2024-03-17T09:34:50;12.10;;;12.07;;
86241;SDS011;76911;51.784;4.658;2024-03-17T09:37:16;12.27;;;12.10;;
86241;SDS011;76911;51.784;4.658;2024-03-17T09:39:42;12.53;;;12.43;;
86241;SDS011;76911;51.784;4.658;2024-03-17T09:42:16;12.07;;;12.05;;
86241;SDS011;76911;51.784;4.658;2024-03-17T09:44:45;12.00;;;11.92;;
86241;SDS011;76911;51.784;4.658;2024-03-17T09:47:18;12.52;;;12.33;;
86241;SDS011;76911;51.784;4.658;2024-03-17T09:49:48;12.98;;;12.76;;
86241;SDS011;76911;51.784;4.658;2024-03-17T09:52:18;12.26;;;12.08;;
86241;SDS011;76911;51.784;4.658;2024-03-17T09:54:54;12.30;;;12.17;;
86241;SDS011;76911;51.784;4.658;2024-03-17T09:57:24;11.63;;;11.61;;
86241;SDS011;76911;51.784;4.658;2024-03-17T09:59:51;12.50;;;12.30;;
86241;SDS011;76911;51.784;4.658;2024-03-17T10:02:18;11.94;;;11.89;;
86241;SDS011;76911;51.784;4.658;2024-03-17T10:04:44;11.77;;;11.72;;
86241;SDS011;76911;51.784;4.658;2024-03-17T10:07:11;11.77;;;11.72;;
86241;SDS011;76911;51.784;4.658;2024-03-17T10:09:36;11.43;;;11.34;;
86241;SDS011;76911;51.784;4.658;2024-03-17T10:12:02;11.49;;;11.47;;
86241;SDS011;76911;51.784;4.658;2024-03-17T10:14:28;11.30;;;11.27;;
86241;SDS011;76911;51.784;4.658;2024-03-17T10:16:54;10.85;;;10.77;;
86241;SDS011;76911;51.784;4.658;2024-03-17T10:19:23;11.52;;;11.33;;
86241;SDS011;76911;51.784;4.658;2024-03-17T10:21:51;11.35;;;11.19;;
86241;SDS011;76911;51.784;4.658;2024-03-17T10:24:25;11.23;;;11.18;;
86241;SDS011;76911;51.784;4.658;2024-03-17T10:31:49;11.01;;;10.88;;
86241;SDS011;76911;51.784;4.658;2024-03-17T10:34:17;10.36;;;10.31;;
86241;SDS011;76911;51.784;4.658;2024-03-17T10:36:44;9.62;;;9.60;;
86241;SDS011;76911;51.784;4.658;2024-03-17T10:39:27;9.93;;;9.80;;
86241;SDS011;76911;51.784;4.658;2024-03-17T10:41:59;9.62;;;9.46;;
86241;SDS011;76911;51.784;4.658;2024-03-17T10:44:27;9.65;;;9.56;;
86241;SDS011;76911;51.784;4.658;2024-03-17T10:46:54;9.61;;;9.48;;
86241;SDS011;76911;51.784;4.658;2024-03-17T10:49:27;9.41;;;9.38;;
86241;SDS011;76911;51.784;4.658;2024-03-17T10:52:02;9.87;;;9.83;;
86241;SDS011;76911;51.784;4.658;2024-03-17T10:54:30;9.72;;;9.65;;
86241;SDS011;76911;51.784;4.658;2024-03-17T10:57:03;10.22;;;10.11;;
86241;SDS011;76911;51.784;4.658;2024-03-17T10:59:42;10.22;;;10.10;;
86241;SDS011;76911;51.784;4.658;2024-03-17T11:02:35;9.24;;;9.23;;
86241;SDS011;76911;51.784;4.658;2024-03-17T11:07:37;9.92;;;9.84;;
86241;SDS011;76911;51.784;4.658;2024-03-17T11:10:08;9.96;;;9.84;;
86241;SDS011;76911;51.784;4.658;2024-03-17T11:17:47;9.58;;;9.54;;
86241;SDS011;76911;51.784;4.658;2024-03-17T11:20:14;9.42;;;9.36;;
86241;SDS011;76911;51.784;4.658;2024-03-17T11:22:48;9.54;;;9.40;;
86241;SDS011;76911;51.784;4.658;2024-03-17T11:27:58;9.44;;;9.40;;
86241;SDS011;76911;51.784;4.658;2024-03-17T11:33:51;9.60;;;9.59;;
86241;SDS011;76911;51.784;4.658;2024-03-17T11:38:56;9.11;;;9.09;;
86241;SDS011;76911;51.784;4.658;2024-03-17T11:41:56;8.90;;;8.90;;
86241;SDS011;76911;51.784;4.658;2024-03-17T11:47:06;9.32;;;9.22;;
86241;SDS011;76911;51.784;4.658;2024-03-17T11:49:41;8.74;;;8.68;;
86241;SDS011;76911;51.784;4.658;2024-03-17T11:52:09;8.72;;;8.65;;
86241;SDS011;76911;51.784;4.658;2024-03-17T11:54:38;8.56;;;8.55;;
86241;SDS011;76911;51.784;4.658;2024-03-17T11:59:31;8.53;;;8.49;;
86241;SDS011;76911;51.784;4.658;2024-03-17T12:01:58;8.08;;;8.07;;
86241;SDS011;76911;51.784;4.658;2024-03-17T12:04:24;8.02;;;8.01;;
86241;SDS011;76911;51.784;4.658;2024-03-17T12:06:59;8.38;;;8.34;;
86241;SDS011;76911;51.784;4.658;2024-03-17T12:09:28;7.79;;;7.70;;
86241;SDS011;76911;51.784;4.658;2024-03-17T12:12:02;7.14;;;7.11;;
86241;SDS011;76911;51.784;4.658;2024-03-17T12:14:31;7.00;;;6.96;;
86241;SDS011;76911;51.784;4.658;2024-03-17T12:16:59;7.24;;;7.20;;
86241;SDS011;76911;51.784;4.658;2024-03-17T12:19:27;7.21;;;7.18;;
86241;SDS011;76911;51.784;4.658;2024-03-17T12:21:57;7.24;;;7.21;;
86241;SDS011;76911;51.784;4.658;2024-03-17T12:24:24;7.14;;;7.12;;
86241;SDS011;76911;51.784;4.658;2024-03-17T12:26:51;6.84;;;6.82;;
86241;SDS011;76911;51.784;4.658;2024-03-17T12:29:32;6.76;;;6.74;;
86241;SDS011;76911;51.784;4.658;2024-03-17T12:32:02;6.89;;;6.87;;
86241;SDS011;76911;51.784;4.658;2024-03-17T12:34:31;6.70;;;6.70;;
86241;SDS011;76911;51.784;4.658;2024-03-17T12:36:59;6.76;;;6.74;;
86241;SDS011;76911;51.784;4.658;2024-03-17T12:42:10;6.97;;;6.96;;
86241;SDS011;76911;51.784;4.658;2024-03-17T12:47:07;6.86;;;6.84;;
86241;SDS011;76911;51.784;4.658;2024-03-17T12:49:43;7.00;;;6.99;;
86241;SDS011;76911;51.784;4.658;2024-03-17T12:52:26;6.75;;;6.71;;
86241;SDS011;76911;51.784;4.658;2024-03-17T12:54:58;6.32;;;6.25;;
86241;SDS011;76911;51.784;4.658;2024-03-17T12:57:46;6.26;;;6.22;;
86241;SDS011;76911;51.784;4.658;2024-03-17T13:00:32;6.12;;;6.12;;
86241;SDS011;76911;51.784;4.658;2024-03-17T13:02:59;6.34;;;6.33;;
86241;SDS011;76911;51.784;4.658;2024-03-17T13:05:35;6.09;;;6.09;;
86241;SDS011;76911;51.784;4.658;2024-03-17T13:08:01;6.02;;;6.02;;
86241;SDS011;76911;51.784;4.658;2024-03-17T13:10:28;5.70;;;5.68;;
86241;SDS011;76911;51.784;4.658;2024-03-17T13:12:59;6.16;;;6.09;;
86241;SDS011;76911;51.784;4.658;2024-03-17T13:15:29;6.33;;;6.30;;
86241;SDS011;76911;51.784;4.658;2024-03-17T13:17:56;6.29;;;6.25;;
86241;SDS011;76911;51.784;4.658;2024-03-17T13:20:22;6.48;;;6.46;;
86241;SDS011;76911;51.784;4.658;2024-03-17T13:22:47;6.31;;;6.30;;
86241;SDS011;76911;51.784;4.658;2024-03-17T13:25:14;6.48;;;6.47;;
86241;SDS011;76911;51.784;4.658;2024-03-17T13:27:42;5.96;;;5.92;;
86241;SDS011;76911;51.784;4.658;2024-03-17T13:30:08;6.04;;;6.02;;
86241;SDS011;76911;51.784;4.658;2024-03-17T13:32:35;5.54;;;5.53;;
86241;SDS011;76911;51.784;4.658;2024-03-17T13:35:01;5.78;;;5.74;;
86241;SDS011;76911;51.784;4.658;2024-03-17T13:37:27;6.60;;;6.56;;
86241;SDS011;76911;51.784;4.658;2024-03-17T13:39:53;6.79;;;6.76;;
86241;SDS011;76911;51.784;4.658;2024-03-17T13:42:18;6.75;;;6.71;;
86241;SDS011;76911;51.784;4.658;2024-03-17T13:44:45;6.52;;;6.45;;
86241;SDS011;76911;51.784;4.658;2024-03-17T13:47:11;6.39;;;6.35;;
86241;SDS011;76911;51.784;4.658;2024-03-17T13:49:39;6.07;;;6.03;;
86241;SDS011;76911;51.784;4.658;2024-03-17T13:52:04;6.09;;;6.07;;
86241;SDS011;76911;51.784;4.658;2024-03-17T13:54:30;5.51;;;5.48;;
86241;SDS011;76911;51.784;4.658;2024-03-17T13:56:57;5.78;;;5.75;;
86241;SDS011;76911;51.784;4.658;2024-03-17T13:59:23;4.93;;;4.92;;
86241;SDS011;76911;51.784;4.658;2024-03-17T14:01:52;5.41;;;5.40;;
86241;SDS011;76911;51.784;4.658;2024-03-17T14:04:17;5.27;;;5.24;;
86241;SDS011;76911;51.784;4.658;2024-03-17T14:06:46;5.01;;;5.01;;
86241;SDS011;76911;51.784;4.658;2024-03-17T14:09:14;5.15;;;5.15;;
86241;SDS011;76911;51.784;4.658;2024-03-17T14:11:44;5.00;;;4.98;;
86241;SDS011;76911;51.784;4.658;2024-03-17T14:14:11;4.97;;;4.93;;
86241;SDS011;76911;51.784;4.658;2024-03-17T14:16:37;4.67;;;4.60;;
86241;SDS011;76911;51.784;4.658;2024-03-17T14:19:04;4.62;;;4.58;;
86241;SDS011;76911;51.784;4.658;2024-03-17T14:21:29;4.44;;;4.40;;
86241;SDS011;76911;51.784;4.658;2024-03-17T14:23:55;4.45;;;4.41;;
86241;SDS011;76911;51.784;4.658;2024-03-17T14:26:24;4.74;;;4.68;;
86241;SDS011;76911;51.784;4.658;2024-03-17T14:28:50;4.95;;;4.94;;
86241;SDS011;76911;51.784;4.658;2024-03-17T14:31:16;5.71;;;5.70;;
86241;SDS011;76911;51.784;4.658;2024-03-17T14:33:42;5.21;;;5.21;;
86241;SDS011;76911;51.784;4.658;2024-03-17T14:36:09;5.12;;;5.12;;
86241;SDS011;76911;51.784;4.658;2024-03-17T14:38:34;5.21;;;5.20;;
86241;SDS011;76911;51.784;4.658;2024-03-17T14:41:00;4.96;;;4.96;;
86241;SDS011;76911;51.784;4.658;2024-03-17T14:43:25;4.98;;;4.98;;
86241;SDS011;76911;51.784;4.658;2024-03-17T14:45:51;5.19;;;5.18;;
86241;SDS011;76911;51.784;4.658;2024-03-17T14:48:17;5.08;;;5.08;;
86241;SDS011;76911;51.784;4.658;2024-03-17T14:50:42;4.99;;;4.99;;
86241;SDS011;76911;51.784;4.658;2024-03-17T14:53:07;4.99;;;4.99;;
86241;SDS011;76911;51.784;4.658;2024-03-17T14:55:33;4.93;;;4.93;;
86241;SDS011;76911;51.784;4.658;2024-03-17T14:57:59;5.22;;;5.20;;
86241;SDS011;76911;51.784;4.658;2024-03-17T15:00:27;5.34;;;5.33;;
86241;SDS011;76911;51.784;4.658;2024-03-17T15:02:55;5.38;;;5.38;;
86241;SDS011;76911;51.784;4.658;2024-03-17T15:05:22;5.28;;;5.27;;